sensor_id;sensor_type;location;lat;lon;timestamp;pressure;altitude;pressure_sealevel;temperature;humidity
5691;BME280;2870;42.680;23.364;2023-04-06T00:00:11;94892.03;;;1.84;77.01
5691;BME280;2870;42.680;23.364;2023-04-06T00:02:38;94895.66;;;2.21;76.84
5691;BME280;2870;42.680;23.364;2023-04-06T00:05:05;94897.06;;;1.75;75.14
5691;BME280;2870;42.680;23.364;2023-04-06T00:07:33;94885.66;;;2.06;75.50
5691;BME280;2870;42.680;23.364;2023-04-06T00:10:02;94882.63;;;2.16;72.70
5691;BME280;2870;42.680;23.364;2023-04-06T00:12:28;94882.22;;;1.89;73.59
5691;BME280;2870;42.680;23.364;2023-04-06T00:14:55;94870.34;;;2.00;74.77
5691;BME280;2870;42.680;23.364;2023-04-06T00:17:22;94873.34;;;2.02;72.96
5691;BME280;2870;42.680;23.364;2023-04-06T00:19:49;94869.56;;;2.10;73.19
5691;BME280;2870;42.680;23.364;2023-04-06T00:22:16;94871.34;;;2.02;74.54
5691;BME280;2870;42.680;23.364;2023-04-06T00:24:43;94866.28;;;2.12;74.76
5691;BME280;2870;42.680;23.364;2023-04-06T00:27:12;94868.06;;;2.04;73.62
5691;BME280;2870;42.680;23.364;2023-04-06T00:29:39;94860.78;;;2.01;72.23
5691;BME280;2870;42.680;23.364;2023-04-06T00:32:06;94851.06;;;1.83;72.82
5691;BME280;2870;42.680;23.364;2023-04-06T00:34:33;94866.31;;;2.01;74.54
5691;BME280;2870;42.680;23.364;2023-04-06T00:37:00;94866.97;;;2.24;73.37
5691;BME280;2870;42.680;23.364;2023-04-06T00:39:27;94851.00;;;2.41;73.19
5691;BME280;2870;42.680;23.364;2023-04-06T00:41:54;94857.63;;;2.27;73.57
5691;BME280;2870;42.680;23.364;2023-04-06T00:44:24;94849.03;;;1.89;73.07
5691;BME280;2870;42.680;23.364;2023-04-06T00:46:51;94849.31;;;2.27;73.51
5691;BME280;2870;42.680;23.364;2023-04-06T00:49:18;94849.56;;;2.34;73.60
5691;BME280;2870;42.680;23.364;2023-04-06T00:51:45;94843.25;;;2.34;72.81
5691;BME280;2870;42.680;23.364;2023-04-06T00:54:12;94843.13;;;2.09;73.24
5691;BME280;2870;42.680;23.364;2023-04-06T00:56:39;94848.38;;;2.60;73.02
5691;BME280;2870;42.680;23.364;2023-04-06T00:59:08;94840.81;;;2.60;73.05
5691;BME280;2870;42.680;23.364;2023-04-06T01:01:36;94836.06;;;2.61;72.53
5691;BME280;2870;42.680;23.364;2023-04-06T01:04:03;94840.81;;;2.60;71.90
5691;BME280;2870;42.680;23.364;2023-04-06T01:06:30;94844.97;;;2.43;71.35
5691;BME280;2870;42.680;23.364;2023-04-06T01:08:56;94839.03;;;2.27;72.72
5691;BME280;2870;42.680;23.364;2023-04-06T01:11:23;94835.06;;;2.17;71.80
5691;BME280;2870;42.680;23.364;2023-04-06T01:13:51;94837.41;;;1.96;72.72
5691;BME280;2870;42.680;23.364;2023-04-06T01:16:18;94839.91;;;2.47;72.09
5691;BME280;2870;42.680;23.364;2023-04-06T01:18:46;94841.59;;;2.14;72.46
5691;BME280;2870;42.680;23.364;2023-04-06T01:21:13;94828.91;;;2.35;73.02
5691;BME280;2870;42.680;23.364;2023-04-06T01:23:44;94816.84;;;2.69;70.95
5691;BME280;2870;42.680;23.364;2023-04-06T01:26:11;94828.47;;;2.20;71.14
5691;BME280;2870;42.680;23.364;2023-04-06T01:28:38;94817.19;;;2.18;72.09
5691;BME280;2870;42.680;23.364;2023-04-06T01:31:07;94822.69;;;2.24;73.64
5691;BME280;2870;42.680;23.364;2023-04-06T01:33:34;94830.13;;;2.40;73.50
5691;BME280;2870;42.680;23.364;2023-04-06T01:36:01;94812.25;;;2.41;73.22
5691;BME280;2870;42.680;23.364;2023-04-06T01:38:28;94800.34;;;2.52;72.50
5691;BME280;2870;42.680;23.364;2023-04-06T01:40:56;94814.84;;;2.33;72.11
5691;BME280;2870;42.680;23.364;2023-04-06T01:43:23;94810.78;;;2.34;73.35
5691;BME280;2870;42.680;23.364;2023-04-06T01:45:50;94816.00;;;2.02;73.04
5691;BME280;2870;42.680;23.364;2023-04-06T01:48:17;94802.47;;;1.99;73.00
5691;BME280;2870;42.680;23.364;2023-04-06T01:50:44;94798.69;;;2.37;72.55
5691;BME280;2870;42.680;23.364;2023-04-06T01:53:10;94794.53;;;2.20;72.11
5691;BME280;2870;42.680;23.364;2023-04-06T01:55:37;94798.25;;;2.28;72.81
5691;BME280;2870;42.680;23.364;2023-04-06T01:58:06;94809.66;;;2.54;73.30
5691;BME280;2870;42.680;23.364;2023-04-06T02:00:33;94794.75;;;2.63;73.40
5691;BME280;2870;42.680;23.364;2023-04-06T02:03:00;94786.53;;;2.82;73.38
5691;BME280;2870;42.680;23.364;2023-04-06T02:05:29;94799.50;;;2.68;73.08
5691;BME280;2870;42.680;23.364;2023-04-06T02:07:56;94790.94;;;2.66;72.74
5691;BME280;2870;42.680;23.364;2023-04-06T02:10:23;94801.63;;;2.81;73.52
5691;BME280;2870;42.680;23.364;2023-04-06T02:12:50;94798.78;;;2.62;72.46
5691;BME280;2870;42.680;23.364;2023-04-06T02:15:18;94795.31;;;3.10;72.36
5691;BME280;2870;42.680;23.364;2023-04-06T02:17:45;94801.97;;;2.72;72.70
5691;BME280;2870;42.680;23.364;2023-04-06T02:20:12;94788.44;;;2.27;74.96
5691;BME280;2870;42.680;23.364;2023-04-06T02:22:39;94799.19;;;2.72;75.46
5691;BME280;2870;42.680;23.364;2023-04-06T02:25:07;94793.38;;;2.75;74.47
5691;BME280;2870;42.680;23.364;2023-04-06T02:27:34;94785.91;;;2.64;72.82
5691;BME280;2870;42.680;23.364;2023-04-06T02:30:01;94791.72;;;2.25;73.91
5691;BME280;2870;42.680;23.364;2023-04-06T02:32:29;94785.50;;;2.49;73.32
5691;BME280;2870;42.680;23.364;2023-04-06T02:34:57;94797.28;;;2.91;73.44
5691;BME280;2870;42.680;23.364;2023-04-06T02:37:24;94793.72;;;2.60;73.29
5691;BME280;2870;42.680;23.364;2023-04-06T02:39:50;94797.47;;;2.69;74.77
5691;BME280;2870;42.680;23.364;2023-04-06T02:42:17;94796.50;;;2.25;74.31
5691;BME280;2870;42.680;23.364;2023-04-06T02:44:44;94793.16;;;1.96;75.00
5691;BME280;2870;42.680;23.364;2023-04-06T02:47:11;94789.88;;;1.98;75.34
5691;BME280;2870;42.680;23.364;2023-04-06T02:49:40;94781.91;;;2.24;74.71
5691;BME280;2870;42.680;23.364;2023-04-06T02:52:07;94794.41;;;2.01;74.39
5691;BME280;2870;42.680;23.364;2023-04-06T02:54:33;94781.97;;;2.19;74.33
5691;BME280;2870;42.680;23.364;2023-04-06T02:57:00;94788.03;;;2.11;73.90
5691;BME280;2870;42.680;23.364;2023-04-06T02:59:27;94779.97;;;2.13;74.52
5691;BME280;2870;42.680;23.364;2023-04-06T03:01:54;94795.72;;;2.30;75.53
5691;BME280;2870;42.680;23.364;2023-04-06T03:04:21;94792.53;;;2.15;74.34
5691;BME280;2870;42.680;23.364;2023-04-06T03:06:53;94789.47;;;2.24;74.77
5691;BME280;2870;42.680;23.364;2023-04-06T03:09:20;94783.63;;;2.33;73.89
5691;BME280;2870;42.680;23.364;2023-04-06T03:11:47;94785.00;;;2.15;74.96
5691;BME280;2870;42.680;23.364;2023-04-06T03:14:14;94785.28;;;2.11;75.00
5691;BME280;2870;42.680;23.364;2023-04-06T03:16:42;94789.41;;;2.35;74.93
5691;BME280;2870;42.680;23.364;2023-04-06T03:19:09;94780.53;;;2.42;74.00
5691;BME280;2870;42.680;23.364;2023-04-06T03:21:36;94779.63;;;2.28;73.68
5691;BME280;2870;42.680;23.364;2023-04-06T03:24:05;94793.75;;;2.25;72.96
5691;BME280;2870;42.680;23.364;2023-04-06T03:26:32;94788.19;;;2.60;73.18
5691;BME280;2870;42.680;23.364;2023-04-06T03:28:59;94778.25;;;2.46;71.87
5691;BME280;2870;42.680;23.364;2023-04-06T03:31:26;94772.72;;;2.46;72.64
5691;BME280;2870;42.680;23.364;2023-04-06T03:33:53;94772.94;;;2.48;71.58
5691;BME280;2870;42.680;23.364;2023-04-06T03:36:20;94777.09;;;2.30;71.89
5691;BME280;2870;42.680;23.364;2023-04-06T03:38:47;94780.22;;;2.16;72.67
5691;BME280;2870;42.680;23.364;2023-04-06T03:41:15;94775.22;;;2.50;74.38
5691;BME280;2870;42.680;23.364;2023-04-06T03:43:42;94774.53;;;2.38;72.58
5691;BME280;2870;42.680;23.364;2023-04-06T03:46:09;94780.25;;;2.10;72.16
5691;BME280;2870;42.680;23.364;2023-04-06T03:48:36;94783.75;;;2.16;72.88
5691;BME280;2870;42.680;23.364;2023-04-06T03:51:03;94783.59;;;1.97;72.84
5691;BME280;2870;42.680;23.364;2023-04-06T03:53:30;94774.59;;;2.62;72.26
5691;BME280;2870;42.680;23.364;2023-04-06T03:55:57;94778.84;;;2.33;71.63
5691;BME280;2870;42.680;23.364;2023-04-06T03:58:25;94771.94;;;2.51;71.61
5691;BME280;2870;42.680;23.364;2023-04-06T04:00:52;94781.66;;;2.63;71.14
5691;BME280;2870;42.680;23.364;2023-04-06T04:03:19;94782.31;;;3.00;71.02
5691;BME280;2870;42.680;23.364;2023-04-06T04:05:47;94783.53;;;2.80;72.21
5691;BME280;2870;42.680;23.364;2023-04-06T04:08:14;94779.72;;;2.53;73.42
5691;BME280;2870;42.680;23.364;2023-04-06T04:10:41;94789.59;;;2.78;72.85
5691;BME280;2870;42.680;23.364;2023-04-06T04:13:08;94788.50;;;2.87;71.86
5691;BME280;2870;42.680;23.364;2023-04-06T04:15:36;94793.66;;;3.02;71.82
5691;BME280;2870;42.680;23.364;2023-04-06T04:18:03;94790.38;;;2.37;72.20
5691;BME280;2870;42.680;23.364;2023-04-06T04:20:30;94782.47;;;2.53;72.16
5691;BME280;2870;42.680;23.364;2023-04-06T04:22:57;94784.69;;;2.60;71.54
5691;BME280;2870;42.680;23.364;2023-04-06T04:25:24;94785.16;;;2.94;71.90
5691;BME280;2870;42.680;23.364;2023-04-06T04:27:51;94779.47;;;2.81;71.25
5691;BME280;2870;42.680;23.364;2023-04-06T04:30:18;94786.03;;;2.78;71.52
5691;BME280;2870;42.680;23.364;2023-04-06T04:32:46;94781.25;;;2.48;72.54
5691;BME280;2870;42.680;23.364;2023-04-06T04:35:13;94782.25;;;2.51;72.59
5691;BME280;2870;42.680;23.364;2023-04-06T04:37:41;94776.66;;;2.56;73.06
5691;BME280;2870;42.680;23.364;2023-04-06T04:40:09;94784.00;;;2.48;72.60
5691;BME280;2870;42.680;23.364;2023-04-06T04:42:36;94784.34;;;2.99;72.85
5691;BME280;2870;42.680;23.364;2023-04-06T04:45:03;94783.09;;;3.25;70.41
5691;BME280;2870;42.680;23.364;2023-04-06T04:47:30;94787.31;;;3.31;70.96
5691;BME280;2870;42.680;23.364;2023-04-06T04:49:58;94783.66;;;3.17;71.46
5691;BME280;2870;42.680;23.364;2023-04-06T04:52:25;94784.19;;;3.16;71.32
5691;BME280;2870;42.680;23.364;2023-04-06T04:54:52;94767.94;;;2.77;69.68
5691;BME280;2870;42.680;23.364;2023-04-06T04:57:19;94791.03;;;2.85;70.77
5691;BME280;2870;42.680;23.364;2023-04-06T04:59:46;94787.56;;;2.79;71.23
5691;BME280;2870;42.680;23.364;2023-04-06T05:02:13;94787.59;;;3.03;70.11
5691;BME280;2870;42.680;23.364;2023-04-06T05:04:40;94784.28;;;2.80;70.85
5691;BME280;2870;42.680;23.364;2023-04-06T05:07:08;94783.75;;;2.82;71.53
5691;BME280;2870;42.680;23.364;2023-04-06T05:09:35;94785.50;;;2.85;72.99
5691;BME280;2870;42.680;23.364;2023-04-06T05:12:03;94783.28;;;2.48;70.73
5691;BME280;2870;42.680;23.364;2023-04-06T05:14:30;94797.31;;;2.85;72.17
5691;BME280;2870;42.680;23.364;2023-04-06T05:16:57;94779.75;;;2.47;71.64
5691;BME280;2870;42.680;23.364;2023-04-06T05:19:24;94779.66;;;2.88;71.43
5691;BME280;2870;42.680;23.364;2023-04-06T05:21:51;94792.81;;;2.82;71.86
5691;BME280;2870;42.680;23.364;2023-04-06T05:24:20;94796.47;;;2.96;71.16
5691;BME280;2870;42.680;23.364;2023-04-06T05:26:48;94799.25;;;2.96;70.71
5691;BME280;2870;42.680;23.364;2023-04-06T05:29:15;94789.19;;;2.93;71.06
5691;BME280;2870;42.680;23.364;2023-04-06T05:31:42;94796.06;;;2.56;71.86
5691;BME280;2870;42.680;23.364;2023-04-06T05:34:09;94792.75;;;2.88;73.95
5691;BME280;2870;42.680;23.364;2023-04-06T05:36:36;94791.31;;;2.51;72.86
5691;BME280;2870;42.680;23.364;2023-04-06T05:39:03;94797.72;;;2.35;74.65
5691;BME280;2870;42.680;23.364;2023-04-06T05:41:31;94791.81;;;2.50;74.77
5691;BME280;2870;42.680;23.364;2023-04-06T05:43:58;94794.53;;;2.20;75.36
5691;BME280;2870;42.680;23.364;2023-04-06T05:46:25;94786.38;;;2.69;76.08
5691;BME280;2870;42.680;23.364;2023-04-06T05:48:52;94791.00;;;2.90;75.58
5691;BME280;2870;42.680;23.364;2023-04-06T05:51:19;94784.81;;;3.03;74.21
5691;BME280;2870;42.680;23.364;2023-04-06T05:53:46;94785.50;;;3.34;72.68
5691;BME280;2870;42.680;23.364;2023-04-06T05:56:13;94793.50;;;3.18;72.91
5691;BME280;2870;42.680;23.364;2023-04-06T05:58:41;94786.91;;;2.97;72.84
5691;BME280;2870;42.680;23.364;2023-04-06T06:01:08;94790.31;;;3.33;73.14
5691;BME280;2870;42.680;23.364;2023-04-06T06:03:35;94789.88;;;3.29;73.64
5691;BME280;2870;42.680;23.364;2023-04-06T06:06:03;94789.78;;;3.59;72.29
5691;BME280;2870;42.680;23.364;2023-04-06T06:08:31;94776.38;;;3.39;72.17
5691;BME280;2870;42.680;23.364;2023-04-06T06:10:58;94782.75;;;3.77;71.05
5691;BME280;2870;42.680;23.364;2023-04-06T06:13:24;94791.56;;;3.81;71.97
5691;BME280;2870;42.680;23.364;2023-04-06T06:15:53;94773.81;;;3.47;73.41
5691;BME280;2870;42.680;23.364;2023-04-06T06:18:19;94777.94;;;3.34;73.15
5691;BME280;2870;42.680;23.364;2023-04-06T06:20:46;94784.31;;;3.29;75.52
5691;BME280;2870;42.680;23.364;2023-04-06T06:23:14;94785.31;;;3.75;74.54
5691;BME280;2870;42.680;23.364;2023-04-06T06:25:40;94786.56;;;3.74;72.32
5691;BME280;2870;42.680;23.364;2023-04-06T06:28:07;94787.22;;;3.61;72.32
5691;BME280;2870;42.680;23.364;2023-04-06T06:30:34;94779.84;;;2.96;73.86
5691;BME280;2870;42.680;23.364;2023-04-06T06:33:03;94780.06;;;3.71;73.67
5691;BME280;2870;42.680;23.364;2023-04-06T06:35:30;94778.81;;;3.48;72.34
5691;BME280;2870;42.680;23.364;2023-04-06T06:37:57;94769.97;;;3.93;71.82
5691;BME280;2870;42.680;23.364;2023-04-06T06:40:24;94780.41;;;3.62;71.33
5691;BME280;2870;42.680;23.364;2023-04-06T06:42:51;94785.94;;;3.87;73.81
5691;BME280;2870;42.680;23.364;2023-04-06T06:45:18;94782.16;;;4.41;71.07
5691;BME280;2870;42.680;23.364;2023-04-06T06:47:45;94786.00;;;4.38;70.76
5691;BME280;2870;42.680;23.364;2023-04-06T06:50:14;94785.47;;;4.39;70.40
5691;BME280;2870;42.680;23.364;2023-04-06T06:52:41;94795.56;;;4.88;68.96
5691;BME280;2870;42.680;23.364;2023-04-06T06:55:09;94780.72;;;4.85;68.38
5691;BME280;2870;42.680;23.364;2023-04-06T06:57:36;94783.47;;;4.53;67.91
5691;BME280;2870;42.680;23.364;2023-04-06T07:00:04;94788.25;;;4.20;68.56
5691;BME280;2870;42.680;23.364;2023-04-06T07:02:34;94786.06;;;4.13;69.06
5691;BME280;2870;42.680;23.364;2023-04-06T07:05:01;94790.44;;;4.28;69.80
5691;BME280;2870;42.680;23.364;2023-04-06T07:07:29;94785.69;;;4.22;67.71
5691;BME280;2870;42.680;23.364;2023-04-06T07:09:56;94778.97;;;4.82;67.42
5691;BME280;2870;42.680;23.364;2023-04-06T07:12:23;94784.56;;;5.41;65.38
5691;BME280;2870;42.680;23.364;2023-04-06T07:14:50;94783.34;;;5.89;63.63
5691;BME280;2870;42.680;23.364;2023-04-06T07:17:17;94778.41;;;5.02;66.00
5691;BME280;2870;42.680;23.364;2023-04-06T07:19:44;94776.81;;;5.07;64.67
5691;BME280;2870;42.680;23.364;2023-04-06T07:22:11;94776.06;;;6.13;62.56
5691;BME280;2870;42.680;23.364;2023-04-06T07:24:39;94787.00;;;7.00;60.00
5691;BME280;2870;42.680;23.364;2023-04-06T07:27:06;94782.06;;;8.35;57.57
5691;BME280;2870;42.680;23.364;2023-04-06T07:29:33;94779.06;;;8.33;55.69
5691;BME280;2870;42.680;23.364;2023-04-06T07:32:00;94782.44;;;8.32;54.66
5691;BME280;2870;42.680;23.364;2023-04-06T07:34:27;94784.84;;;8.94;54.46
5691;BME280;2870;42.680;23.364;2023-04-06T07:36:54;94788.22;;;9.00;53.35
5691;BME280;2870;42.680;23.364;2023-04-06T07:39:22;94789.81;;;8.65;54.42
5691;BME280;2870;42.680;23.364;2023-04-06T07:41:50;94779.03;;;8.18;55.30
5691;BME280;2870;42.680;23.364;2023-04-06T07:44:17;94775.34;;;7.58;57.40
5691;BME280;2870;42.680;23.364;2023-04-06T07:46:44;94777.47;;;6.95;58.97
5691;BME280;2870;42.680;23.364;2023-04-06T07:49:11;94776.44;;;7.27;57.05
5691;BME280;2870;42.680;23.364;2023-04-06T07:51:39;94784.34;;;6.94;58.49
5691;BME280;2870;42.680;23.364;2023-04-06T07:54:06;94783.78;;;7.37;57.75
5691;BME280;2870;42.680;23.364;2023-04-06T07:56:33;94780.66;;;8.49;54.02
5691;BME280;2870;42.680;23.364;2023-04-06T07:59:01;94765.75;;;7.38;56.50
5691;BME280;2870;42.680;23.364;2023-04-06T08:01:28;94781.78;;;8.10;54.77
5691;BME280;2870;42.680;23.364;2023-04-06T08:03:56;94781.69;;;8.31;53.09
5691;BME280;2870;42.680;23.364;2023-04-06T08:06:23;94779.44;;;9.57;53.84
5691;BME280;2870;42.680;23.364;2023-04-06T08:08:50;94780.53;;;10.81;49.95
5691;BME280;2870;42.680;23.364;2023-04-06T08:11:16;94777.78;;;11.31;48.08
5691;BME280;2870;42.680;23.364;2023-04-06T08:13:43;94775.72;;;11.06;46.41
5691;BME280;2870;42.680;23.364;2023-04-06T08:16:12;94766.47;;;10.00;49.21
5691;BME280;2870;42.680;23.364;2023-04-06T08:18:39;94781.94;;;11.22;48.44
5691;BME280;2870;42.680;23.364;2023-04-06T08:21:05;94786.16;;;10.41;47.93
5691;BME280;2870;42.680;23.364;2023-04-06T08:23:32;94775.16;;;9.49;50.13
5691;BME280;2870;42.680;23.364;2023-04-06T08:25:59;94791.34;;;11.17;47.04
5691;BME280;2870;42.680;23.364;2023-04-06T08:28:26;94779.25;;;9.55;47.65
5691;BME280;2870;42.680;23.364;2023-04-06T08:30:53;94784.38;;;11.01;46.77
5691;BME280;2870;42.680;23.364;2023-04-06T08:33:21;94781.41;;;11.24;46.00
5691;BME280;2870;42.680;23.364;2023-04-06T08:35:48;94779.22;;;10.82;47.86
5691;BME280;2870;42.680;23.364;2023-04-06T08:38:16;94788.34;;;10.57;45.12
5691;BME280;2870;42.680;23.364;2023-04-06T08:40:42;94769.56;;;9.34;48.40
5691;BME280;2870;42.680;23.364;2023-04-06T08:43:14;94784.16;;;10.18;49.54
5691;BME280;2870;42.680;23.364;2023-04-06T08:45:41;94777.00;;;9.77;47.31
5691;BME280;2870;42.680;23.364;2023-04-06T08:48:09;94782.25;;;11.34;46.38
5691;BME280;2870;42.680;23.364;2023-04-06T08:50:38;94762.22;;;8.62;49.71
5691;BME280;2870;42.680;23.364;2023-04-06T08:53:06;94771.63;;;9.18;52.42
5691;BME280;2870;42.680;23.364;2023-04-06T08:55:35;94780.25;;;8.38;50.91
5691;BME280;2870;42.680;23.364;2023-04-06T08:58:03;94775.50;;;9.68;49.80
5691;BME280;2870;42.680;23.364;2023-04-06T09:00:31;94765.78;;;9.85;48.08
5691;BME280;2870;42.680;23.364;2023-04-06T09:02:58;94768.78;;;11.57;44.92
5691;BME280;2870;42.680;23.364;2023-04-06T09:05:26;94783.94;;;11.54;45.65
5691;BME280;2870;42.680;23.364;2023-04-06T09:07:54;94781.22;;;10.89;44.55
5691;BME280;2870;42.680;23.364;2023-04-06T09:10:21;94773.34;;;10.63;44.11
5691;BME280;2870;42.680;23.364;2023-04-06T09:12:50;94767.47;;;11.76;44.25
5691;BME280;2870;42.680;23.364;2023-04-06T09:15:18;94769.31;;;12.33;42.56
5691;BME280;2870;42.680;23.364;2023-04-06T09:17:45;94773.63;;;11.99;42.37
5691;BME280;2870;42.680;23.364;2023-04-06T09:20:12;94769.31;;;11.13;43.59
5691;BME280;2870;42.680;23.364;2023-04-06T09:22:39;94759.88;;;11.68;43.01
5691;BME280;2870;42.680;23.364;2023-04-06T09:25:09;94760.16;;;12.15;41.84
5691;BME280;2870;42.680;23.364;2023-04-06T09:27:37;94766.94;;;11.27;42.91
5691;BME280;2870;42.680;23.364;2023-04-06T09:30:06;94763.69;;;11.81;42.29
5691;BME280;2870;42.680;23.364;2023-04-06T09:32:44;94753.09;;;11.72;42.60
5691;BME280;2870;42.680;23.364;2023-04-06T09:35:12;94760.59;;;11.69;43.00
5691;BME280;2870;42.680;23.364;2023-04-06T09:37:39;94760.66;;;10.61;44.04
5691;BME280;2870;42.680;23.364;2023-04-06T09:40:08;94756.31;;;11.01;45.11
5691;BME280;2870;42.680;23.364;2023-04-06T09:42:36;94768.03;;;11.32;42.48
5691;BME280;2870;42.680;23.364;2023-04-06T09:45:03;94757.06;;;12.38;42.02
5691;BME280;2870;42.680;23.364;2023-04-06T09:47:30;94756.75;;;11.82;42.27
5691;BME280;2870;42.680;23.364;2023-04-06T09:49:59;94751.38;;;11.51;42.83
5691;BME280;2870;42.680;23.364;2023-04-06T09:52:27;94756.88;;;12.53;43.10
5691;BME280;2870;42.680;23.364;2023-04-06T09:55:02;94753.06;;;13.39;41.50
5691;BME280;2870;42.680;23.364;2023-04-06T09:57:34;94763.91;;;13.52;39.97
5691;BME280;2870;42.680;23.364;2023-04-06T10:00:05;94763.13;;;13.06;40.25
5691;BME280;2870;42.680;23.364;2023-04-06T10:02:41;94761.56;;;12.06;40.61
5691;BME280;2870;42.680;23.364;2023-04-06T10:05:17;94761.38;;;12.39;40.60
5691;BME280;2870;42.680;23.364;2023-04-06T10:07:47;94774.09;;;12.40;40.99
5691;BME280;2870;42.680;23.364;2023-04-06T10:10:16;94763.34;;;11.09;43.30
5691;BME280;2870;42.680;23.364;2023-04-06T10:12:45;94763.63;;;10.64;42.86
5691;BME280;2870;42.680;23.364;2023-04-06T10:15:14;94749.44;;;9.05;46.13
5691;BME280;2870;42.680;23.364;2023-04-06T10:17:41;94762.69;;;9.19;48.69
5691;BME280;2870;42.680;23.364;2023-04-06T10:20:11;94759.22;;;9.90;46.15
5691;BME280;2870;42.680;23.364;2023-04-06T10:22:43;94759.13;;;10.20;43.89
5691;BME280;2870;42.680;23.364;2023-04-06T10:25:16;94751.81;;;9.46;45.99
5691;BME280;2870;42.680;23.364;2023-04-06T10:27:44;94753.25;;;8.40;47.55
5691;BME280;2870;42.680;23.364;2023-04-06T10:30:15;94745.13;;;9.34;46.10
5691;BME280;2870;42.680;23.364;2023-04-06T10:32:42;94747.78;;;10.11;45.13
5691;BME280;2870;42.680;23.364;2023-04-06T10:35:11;94750.56;;;10.11;44.15
5691;BME280;2870;42.680;23.364;2023-04-06T10:37:50;94736.94;;;8.98;46.52
5691;BME280;2870;42.680;23.364;2023-04-06T10:40:22;94751.25;;;8.71;48.39
5691;BME280;2870;42.680;23.364;2023-04-06T10:42:52;94737.28;;;9.55;46.77
5691;BME280;2870;42.680;23.364;2023-04-06T10:45:20;94743.44;;;9.23;47.13
5691;BME280;2870;42.680;23.364;2023-04-06T10:47:48;94745.69;;;9.40;47.03
5691;BME280;2870;42.680;23.364;2023-04-06T10:50:16;94742.25;;;8.42;47.11
5691;BME280;2870;42.680;23.364;2023-04-06T10:52:44;94746.06;;;9.29;49.04
5691;BME280;2870;42.680;23.364;2023-04-06T10:55:12;94734.88;;;9.06;47.54
5691;BME280;2870;42.680;23.364;2023-04-06T10:57:39;94741.09;;;9.98;47.89
5691;BME280;2870;42.680;23.364;2023-04-06T11:00:12;94739.84;;;10.32;46.24
5691;BME280;2870;42.680;23.364;2023-04-06T11:02:39;94739.53;;;10.13;44.40
5691;BME280;2870;42.680;23.364;2023-04-06T11:05:07;94714.69;;;9.53;47.11
5691;BME280;2870;42.680;23.364;2023-04-06T11:07:34;94741.94;;;9.61;45.95
5691;BME280;2870;42.680;23.364;2023-04-06T11:10:01;94741.56;;;9.41;45.82
5691;BME280;2870;42.680;23.364;2023-04-06T11:12:28;94732.13;;;8.32;47.86
5691;BME280;2870;42.680;23.364;2023-04-06T11:14:57;94732.28;;;9.16;46.98
5691;BME280;2870;42.680;23.364;2023-04-06T11:17:31;94724.78;;;9.34;46.64
5691;BME280;2870;42.680;23.364;2023-04-06T11:19:59;94722.72;;;9.34;48.00
5691;BME280;2870;42.680;23.364;2023-04-06T11:22:27;94724.25;;;9.20;45.97
5691;BME280;2870;42.680;23.364;2023-04-06T11:25:04;94722.94;;;8.75;46.90
5691;BME280;2870;42.680;23.364;2023-04-06T11:27:32;94729.59;;;9.71;44.53
5691;BME280;2870;42.680;23.364;2023-04-06T11:30:00;94715.50;;;9.08;46.46
5691;BME280;2870;42.680;23.364;2023-04-06T11:32:28;94716.59;;;8.97;50.30
5691;BME280;2870;42.680;23.364;2023-04-06T11:34:57;94714.34;;;9.19;47.57
5691;BME280;2870;42.680;23.364;2023-04-06T11:37:26;94708.59;;;9.09;46.93
5691;BME280;2870;42.680;23.364;2023-04-06T11:39:54;94716.59;;;8.90;46.91
5691;BME280;2870;42.680;23.364;2023-04-06T11:42:23;94712.13;;;9.10;46.87
5691;BME280;2870;42.680;23.364;2023-04-06T11:44:51;94705.91;;;8.50;48.24
5691;BME280;2870;42.680;23.364;2023-04-06T11:47:20;94702.81;;;8.10;48.97
5691;BME280;2870;42.680;23.364;2023-04-06T11:49:53;94690.47;;;8.72;47.72
5691;BME280;2870;42.680;23.364;2023-04-06T11:52:23;94703.09;;;8.35;48.66
5691;BME280;2870;42.680;23.364;2023-04-06T11:54:51;94700.72;;;8.46;48.45
5691;BME280;2870;42.680;23.364;2023-04-06T11:57:21;94693.13;;;8.11;48.40
5691;BME280;2870;42.680;23.364;2023-04-06T11:59:49;94699.31;;;8.17;49.65
5691;BME280;2870;42.680;23.364;2023-04-06T12:02:16;94703.19;;;8.14;49.73
5691;BME280;2870;42.680;23.364;2023-04-06T12:04:44;94698.84;;;7.54;49.30
5691;BME280;2870;42.680;23.364;2023-04-06T12:07:11;94696.88;;;7.05;52.02
5691;BME280;2870;42.680;23.364;2023-04-06T12:09:39;94689.69;;;7.46;50.80
5691;BME280;2870;42.680;23.364;2023-04-06T12:12:06;94701.09;;;7.55;49.62
5691;BME280;2870;42.680;23.364;2023-04-06T12:14:33;94700.22;;;8.12;49.17
5691;BME280;2870;42.680;23.364;2023-04-06T12:17:00;94700.00;;;8.10;49.77
5691;BME280;2870;42.680;23.364;2023-04-06T12:19:26;94694.19;;;8.52;49.29
5691;BME280;2870;42.680;23.364;2023-04-06T12:21:54;94691.03;;;8.55;48.10
5691;BME280;2870;42.680;23.364;2023-04-06T12:24:22;94687.78;;;8.28;48.42
5691;BME280;2870;42.680;23.364;2023-04-06T12:26:50;94692.59;;;8.12;49.29
5691;BME280;2870;42.680;23.364;2023-04-06T12:29:17;94693.03;;;7.80;49.39
5691;BME280;2870;42.680;23.364;2023-04-06T12:31:44;94679.97;;;7.75;50.23
5691;BME280;2870;42.680;23.364;2023-04-06T12:34:11;94687.28;;;7.93;50.06
5691;BME280;2870;42.680;23.364;2023-04-06T12:36:38;94687.28;;;7.93;48.86
5691;BME280;2870;42.680;23.364;2023-04-06T12:39:05;94679.38;;;7.69;49.95
5691;BME280;2870;42.680;23.364;2023-04-06T12:41:32;94676.84;;;7.86;50.07
5691;BME280;2870;42.680;23.364;2023-04-06T12:44:01;94669.72;;;7.70;48.82
5691;BME280;2870;42.680;23.364;2023-04-06T12:46:29;94670.09;;;7.74;49.34
5691;BME280;2870;42.680;23.364;2023-04-06T12:48:57;94667.38;;;7.46;50.24
5691;BME280;2870;42.680;23.364;2023-04-06T12:51:24;94659.38;;;7.93;48.46
5691;BME280;2870;42.680;23.364;2023-04-06T12:53:52;94675.59;;;7.95;51.41
5691;BME280;2870;42.680;23.364;2023-04-06T12:56:19;94666.81;;;7.91;48.56
5691;BME280;2870;42.680;23.364;2023-04-06T12:58:49;94656.63;;;7.57;49.44
5691;BME280;2870;42.680;23.364;2023-04-06T13:01:18;94665.63;;;7.71;49.62
5691;BME280;2870;42.680;23.364;2023-04-06T13:03:45;94654.78;;;7.60;50.27
5691;BME280;2870;42.680;23.364;2023-04-06T13:06:12;94636.63;;;7.02;50.18
5691;BME280;2870;42.680;23.364;2023-04-06T13:08:40;94650.44;;;7.43;51.03
5691;BME280;2870;42.680;23.364;2023-04-06T13:11:07;94666.25;;;7.85;50.52
5691;BME280;2870;42.680;23.364;2023-04-06T13:13:35;94659.69;;;7.82;49.80
5691;BME280;2870;42.680;23.364;2023-04-06T13:16:03;94654.97;;;8.06;49.19
5691;BME280;2870;42.680;23.364;2023-04-06T13:18:32;94651.91;;;7.88;51.30
5691;BME280;2870;42.680;23.364;2023-04-06T13:21:00;94657.84;;;7.77;49.64